Weather reports worldwide

Advertisment
Malaga,Cmt, Spain (8481): temperature & dewpoint: 13.01.2021 06:00:00 - 19.01.2021 06:00:00 (CET)Malaga,Cmt, Spain (8481): wind speed & gusts: 13.01.2021 06:00:00 - 19.01.2021 06:00:00 (CET)Malaga,Cmt, Spain (8481): wind direction: 13.01.2021 06:00:00 - 19.01.2021 06:00:00 (CET)Malaga,Cmt, Spain (8481): reduced air pressure: 13.01.2021 06:00:00 - 19.01.2021 06:00:00 (CET)Malaga,Cmt, Spain (8481): precipitation: 13.01.2021 06:00:00 - 19.01.2021 06:00:00 (CET)
Date & Time tt [°C] td [°C] ff [km/h] ff [kn] fx [km/h] fx [kn] dd ppp [hPa] rr [mm]
19.01.2021 06:00:00 - - - - - - - - -
19.01.2021 05:00:00 6,8 4,1 8 4 11 6 W 1029,4 0,0
19.01.2021 04:00:00 7,3 4,6 4 2 10 5 W 1029,7 0,0
19.01.2021 03:00:00 8,4 5,1 4 2 11 6 WNW 1029,8 0,0
19.01.2021 02:00:00 7,5 6,2 4 2 10 6 NNW 1029,9 0,0
19.01.2021 01:00:00 6,5 5,3 10 5 13 7 W 1030,4 -
19.01.2021 00:00:00 8,0 6,8 1 1 7 4 NW 1030,3 0,0
18.01.2021 23:00:00 8,8 7,6 3 2 5 3 W 1029,9 0,0
18.01.2021 22:00:00 9,7 8,3 0 0 0 0 N 1029,8 0,0
18.01.2021 21:00:00 11,0 9,6 0 0 4 2 N 1029,3 0,0
18.01.2021 20:00:00 12,3 10,5 1 1 6 4 NNE 1028,8 0,0
18.01.2021 19:00:00 13,3 10,5 3 2 13 7 ESE 1028,4 -
18.01.2021 18:00:00 14,7 10,8 6 4 16 8 SSE 1027,9 0,0
18.01.2021 17:00:00 15,5 9,4 12 7 17 9 SE 1027,6 0,0
18.01.2021 16:00:00 16,6 8,3 11 6 16 9 SE 1027,5 0,0
18.01.2021 15:00:00 16,7 7,1 9 5 14 8 ESE 1027,4 0,0
18.01.2021 14:00:00 17,2 8,1 8 4 13 7 SE 1028,1 0,0
18.01.2021 13:00:00 17,4 8,0 6 4 12 7 SE 1029,0 -
18.01.2021 12:00:00 15,0 4,6 2 1 8 5 WSW 1029,8 0,0
18.01.2021 11:00:00 11,8 5,5 7 4 10 5 WSW 1029,9 0,0
18.01.2021 10:00:00 8,5 4,8 4 2 10 5 W 1029,1 0,0
18.01.2021 09:00:00 5,4 2,5 7 4 10 5 W 1028,6 0,0
18.01.2021 08:00:00 5,5 2,3 2 1 9 5 W 1028,2 0,0
18.01.2021 07:00:00 5,0 2,7 4 2 10 5 W 1027,7 -
18.01.2021 06:00:00 6,6 2,3 6 4 9 5 W 1027,4 0,0
18.01.2021 05:00:00 6,8 3,4 7 4 13 7 W 1027,6 0,0
18.01.2021 04:00:00 8,3 3,4 7 4 11 6 W 1027,6 0,0
18.01.2021 03:00:00 9,6 4,5 5 3 13 7 WNW 1027,7 0,0
18.01.2021 02:00:00 9,7 5,3 6 4 13 7 NW 1027,9 0,0
18.01.2021 01:00:00 9,2 6,1 5 3 11 6 NNW 1028,5 -
18.01.2021 00:00:00 9,8 7,0 2 1 6 3 WNW 1028,5 0,0
17.01.2021 23:00:00 11,0 8,8 1 1 10 5 NE 1028,4 0,0
17.01.2021 22:00:00 12,1 10,2 4 2 13 7 ENE 1028,0 0,0
17.01.2021 21:00:00 12,0 10,0 6 3 12 6 ENE 1027,9 0,0
17.01.2021 20:00:00 12,5 10,2 6 3 10 5 ENE 1028,0 0,0
17.01.2021 19:00:00 13,5 9,6 5 3 8 4 ENE 1027,9 -
17.01.2021 18:00:00 15,2 8,4 4 2 9 5 E 1027,8 0,0
17.01.2021 17:00:00 16,6 8,3 5 3 10 5 ESE 1027,8 0,0
17.01.2021 16:00:00 18,1 8,4 6 3 11 6 SSE 1027,8 0,0
17.01.2021 15:00:00 19,0 7,1 6 3 11 6 SSE 1028,1 0,0
17.01.2021 14:00:00 18,1 5,0 4 2 12 6 WSW 1029,0 0,0
17.01.2021 13:00:00 16,9 7,0 10 5 17 9 W 1030,2 -
17.01.2021 12:00:00 14,5 6,5 11 6 15 8 W 1031,3 0,0
17.01.2021 11:00:00 12,3 6,4 6 4 14 7 WSW 1031,7 0,0
17.01.2021 10:00:00 8,7 5,3 8 5 13 7 WSW 1031,7 0,0
17.01.2021 09:00:00 5,8 4,1 7 4 12 6 WNW 1031,5 0,0
17.01.2021 08:00:00 5,6 3,4 2 1 11 6 W 1031,6 0,0
17.01.2021 07:00:00 6,6 4,5 4 2 9 5 WNW 1031,6 -
17.01.2021 06:00:00 7,3 5,1 6 3 10 6 WNW 1031,4 0,0
17.01.2021 05:00:00 7,5 5,6 5 3 11 6 NW 1031,2 0,0
17.01.2021 04:00:00 8,4 6,1 6 3 12 7 NW 1031,4 0,0
17.01.2021 03:00:00 7,1 5,3 5 3 12 6 W 1031,8 0,0
17.01.2021 02:00:00 9,1 6,4 3 1 13 7 NW 1031,8 0,0
17.01.2021 01:00:00 9,3 6,5 7 4 13 7 WNW 1032,1 -
17.01.2021 00:00:00 9,1 6,2 0 0 8 4 N 1032,1 0,0
16.01.2021 23:00:00 10,4 6,8 1 1 7 4 WNW 1031,9 0,0
16.01.2021 22:00:00 12,3 6,5 1 1 5 3 W 1031,4 0,0
16.01.2021 21:00:00 13,1 6,7 4 2 11 6 E 1031,1 0,0
16.01.2021 20:00:00 13,0 7,3 6 3 18 10 ENE 1030,7 0,0
16.01.2021 19:00:00 13,5 8,1 13 7 27 15 E 1030,0 -
16.01.2021 18:00:00 14,1 9,2 16 9 27 15 ESE 1029,4 0,0
16.01.2021 17:00:00 15,3 10,5 14 8 27 14 SE 1028,5 0,0
16.01.2021 16:00:00 15,4 9,3 20 11 33 18 ESE 1027,9 0,0
16.01.2021 15:00:00 16,2 7,4 18 10 29 16 ESE 1027,5 0,0
16.01.2021 14:00:00 18,2 2,5 11 6 28 15 ESE 1026,9 0,0
16.01.2021 13:00:00 18,6 2,1 16 9 31 17 W 1026,6 -
16.01.2021 12:00:00 16,8 1,7 22 12 36 19 WSW 1027,3 0,0
16.01.2021 11:00:00 14,5 1,5 17 9 27 15 W 1027,5 0,0
16.01.2021 10:00:00 11,9 0,9 14 8 27 15 W 1026,8 0,0
16.01.2021 09:00:00 9,8 -0,3 12 7 24 13 W 1026,2 0,0
16.01.2021 08:00:00 10,1 0,2 10 6 22 12 WNW 1026,1 0,0
16.01.2021 07:00:00 9,9 0,9 13 7 24 13 W 1025,5 -
16.01.2021 06:00:00 10,0 0,9 13 7 26 14 W 1025,5 0,0
16.01.2021 05:00:00 10,2 1,1 13 7 29 16 W 1025,5 0,0
16.01.2021 04:00:00 10,4 1,5 15 8 27 14 W 1025,6 0,0
16.01.2021 03:00:00 10,8 1,7 14 8 27 14 W 1026,0 0,0
16.01.2021 02:00:00 10,6 2,1 16 9 26 14 W 1025,9 0,0
16.01.2021 01:00:00 11,3 2,1 14 7 26 14 W 1026,1 -
16.01.2021 00:00:00 11,6 2,3 15 8 23 13 W 1026,5 0,0
15.01.2021 23:00:00 11,9 2,1 11 6 27 15 W 1026,2 0,0
15.01.2021 22:00:00 13,1 2,3 15 8 27 15 WNW 1025,7 0,0
15.01.2021 21:00:00 13,2 2,1 12 6 26 14 W 1025,7 0,0
15.01.2021 20:00:00 14,1 2,3 17 9 30 16 W 1025,3 0,0
15.01.2021 19:00:00 15,3 1,1 16 9 30 16 W 1024,7 -
15.01.2021 18:00:00 17,0 1,9 18 10 34 19 WNW 1023,9 0,0
15.01.2021 17:00:00 19,2 1,3 16 9 32 18 WNW 1023,3 0,0
15.01.2021 16:00:00 19,8 2,7 14 7 35 19 WNW 1023,4 0,0
15.01.2021 15:00:00 19,5 2,9 16 9 28 15 W 1023,7 0,0
15.01.2021 14:00:00 19,6 4,1 17 9 25 13 W 1024,7 0,0
15.01.2021 13:00:00 16,6 4,6 12 7 22 12 W 1026,4 -
15.01.2021 12:00:00 14,9 4,6 14 8 20 11 W 1027,9 0,0
15.01.2021 11:00:00 10,9 3,0 14 7 21 11 WNW 1028,4 0,0
15.01.2021 10:00:00 9,1 2,5 9 5 14 8 WNW 1028,0 0,0
15.01.2021 09:00:00 7,6 1,5 7 4 21 11 WNW 1027,6 0,0
15.01.2021 08:00:00 8,1 1,5 10 5 18 10 NW 1027,3 0,0
15.01.2021 07:00:00 8,1 1,9 9 5 16 9 NW 1026,9 -
15.01.2021 06:00:00 8,6 1,9 10 5 21 12 NW 1026,8 0,0
15.01.2021 05:00:00 8,7 2,1 11 6 22 12 W 1026,8 0,0
15.01.2021 04:00:00 8,9 2,3 14 7 29 16 W 1026,5 0,0
15.01.2021 03:00:00 9,4 2,5 19 10 34 18 W 1026,5 0,0
15.01.2021 02:00:00 9,5 2,1 21 11 34 18 W 1026,4 0,0
15.01.2021 01:00:00 10,0 2,1 18 10 31 17 W 1026,7 -
15.01.2021 00:00:00 10,3 1,9 18 10 30 16 W 1026,6 0,0
14.01.2021 23:00:00 10,7 1,7 15 8 32 17 W 1026,4 0,0
14.01.2021 22:00:00 11,2 0,9 17 9 30 16 W 1026,1 0,0
14.01.2021 21:00:00 11,7 0,4 17 9 30 16 W 1026,0 0,0
14.01.2021 20:00:00 12,7 -0,3 14 8 26 14 W 1026,0 0,0
14.01.2021 19:00:00 13,7 -0,5 10 5 29 15 NW 1025,8 -
14.01.2021 18:00:00 15,2 -0,5 14 8 35 19 WNW 1025,2 0,0
14.01.2021 17:00:00 16,4 0,9 17 9 32 17 WNW 1025,0 0,0
14.01.2021 16:00:00 17,8 2,1 11 6 32 18 WNW 1024,7 0,0
14.01.2021 15:00:00 16,8 0,0 19 10 35 19 WNW 1024,9 0,0
14.01.2021 14:00:00 17,3 0,4 18 10 34 18 WNW 1025,6 0,0
14.01.2021 13:00:00 16,2 1,1 18 10 32 17 W 1026,7 -
14.01.2021 12:00:00 15,6 2,5 14 8 32 18 W 1027,8 0,0
14.01.2021 11:00:00 13,3 2,3 18 10 27 15 W 1028,3 0,0
14.01.2021 10:00:00 10,1 0,4 13 7 22 12 WNW 1028,6 0,0
14.01.2021 09:00:00 8,8 0,0 12 6 24 13 WNW 1028,5 0,0
14.01.2021 08:00:00 8,5 -0,3 12 6 23 12 WNW 1028,3 0,0
14.01.2021 07:00:00 8,1 -0,3 12 7 23 12 WNW 1028,3 -
14.01.2021 06:00:00 8,8 -0,3 15 8 24 13 WNW 1028,5 0,0
14.01.2021 05:00:00 9,0 0,4 16 9 29 15 W 1028,7 0,0
14.01.2021 04:00:00 8,4 0,2 10 6 23 12 W 1028,9 0,0
14.01.2021 03:00:00 9,3 0,2 13 7 23 12 W 1029,1 0,0
14.01.2021 02:00:00 9,9 0,2 15 8 23 12 WNW 1029,3 0,0
14.01.2021 01:00:00 8,8 0,4 10 5 17 9 W 1030,0 -
14.01.2021 00:00:00 9,0 0,9 9 5 16 9 WNW 1030,2 0,0
13.01.2021 23:00:00 9,2 2,3 5 3 12 6 NW 1030,1 0,0
13.01.2021 22:00:00 9,3 3,0 5 3 11 6 NW 1030,0 0,0
13.01.2021 21:00:00 9,6 3,9 4 2 8 4 WNW 1029,9 0,0
13.01.2021 20:00:00 10,6 3,2 5 3 10 6 NNW 1029,7 0,0
13.01.2021 19:00:00 11,9 1,9 4 2 11 6 NE 1029,3 -
13.01.2021 18:00:00 13,9 1,3 4 2 13 7 E 1029,1 0,0
13.01.2021 17:00:00 14,8 2,3 8 4 15 8 E 1028,9 0,0
13.01.2021 16:00:00 15,6 3,9 9 5 15 8 ESE 1028,9 0,0
13.01.2021 15:00:00 18,1 2,5 3 2 11 6 SSW 1028,5 0,0
13.01.2021 14:00:00 16,7 2,7 4 2 14 7 W 1029,3 0,0
13.01.2021 13:00:00 14,9 3,0 9 5 16 9 W 1030,7 -
13.01.2021 12:00:00 12,9 3,6 8 4 13 7 WSW 1031,9 0,0
13.01.2021 11:00:00 10,3 3,4 9 5 14 8 W 1032,3 0,0
13.01.2021 10:00:00 6,9 3,4 7 4 10 5 W 1032,0 0,0
13.01.2021 09:00:00 4,3 1,1 6 4 14 8 W 1031,7 0,0
13.01.2021 08:00:00 4,5 2,1 6 3 14 8 NNW 1031,3 0,0
13.01.2021 07:00:00 2,8 0,4 9 5 16 8 W 1031,0 -
13.01.2021 06:00:00 5,4 1,5 6 3 16 8 NW 1030,8 0,0

tt = temperature
td = dewpoint
ff = wind speed
fx = gusts
dd = wind direction
ppp = reduced air pressure
rr = precipitation

Next stations